createdAt,value
2023-02-05T00:00:43.869Z,5.70
2023-02-05T00:03:31.362Z,4.50
2023-02-05T00:06:19.190Z,4.43
2023-02-05T00:09:06.534Z,3.17
2023-02-05T00:11:53.906Z,3.73
2023-02-05T00:14:41.267Z,3.93
2023-02-05T00:17:28.676Z,4.33
2023-02-05T00:20:16.102Z,3.53
2023-02-05T00:23:03.669Z,3.63
2023-02-05T00:25:51.053Z,4.07
2023-02-05T00:28:38.565Z,4.17
2023-02-05T00:31:26.137Z,4.13
2023-02-05T00:34:13.764Z,4.10
2023-02-05T00:37:01.192Z,4.27
2023-02-05T00:39:48.589Z,8.90
2023-02-05T00:42:36.018Z,10.37
2023-02-05T00:45:23.346Z,8.27
2023-02-05T00:48:10.769Z,7.43
2023-02-05T00:50:58.099Z,8.13
2023-02-05T00:53:45.436Z,5.33
2023-02-05T00:56:32.786Z,6.53
2023-02-05T00:59:20.352Z,6.37
2023-02-05T01:02:07.737Z,4.37
2023-02-05T01:04:56.055Z,4.73
2023-02-05T01:07:43.437Z,5.00
2023-02-05T01:10:30.879Z,6.10
2023-02-05T01:13:18.869Z,3.87
2023-02-05T01:16:06.335Z,6.73
2023-02-05T01:18:56.540Z,8.10
2023-02-05T01:21:44.407Z,8.17
2023-02-05T01:24:32.146Z,4.37
2023-02-05T01:27:19.564Z,7.10
2023-02-05T01:30:07.461Z,7.20
2023-02-05T01:32:54.900Z,10.53
2023-02-05T01:35:44.664Z,6.07
2023-02-05T01:38:32.037Z,6.13
2023-02-05T01:41:19.471Z,9.30
2023-02-05T01:44:11.907Z,9.50
2023-02-05T01:46:59.245Z,7.17
2023-02-05T01:49:46.636Z,5.40
2023-02-05T01:52:34.043Z,8.47
2023-02-05T01:55:21.634Z,5.97
2023-02-05T01:58:09.470Z,4.60
2023-02-05T02:00:57.316Z,4.47
2023-02-05T02:03:45.147Z,5.03
2023-02-05T02:06:33.577Z,4.77
2023-02-05T02:09:20.946Z,7.73
2023-02-05T02:12:09.534Z,4.60
2023-02-05T02:14:59.092Z,3.77
2023-02-05T02:17:47.859Z,3.87
2023-02-05T02:20:37.729Z,4.67
2023-02-05T02:23:44.074Z,6.23
2023-02-05T02:26:34.657Z,5.27
2023-02-05T02:29:32.499Z,3.13
2023-02-05T02:32:32.330Z,4.00
2023-02-05T02:35:48.992Z,4.63
2023-02-05T02:38:41.979Z,3.07
2023-02-05T02:41:32.217Z,2.83
2023-02-05T02:44:40.020Z,4.30
2023-02-05T02:47:30.506Z,2.57
2023-02-05T02:50:23.849Z,2.53
2023-02-05T02:53:14.158Z,5.03
2023-02-05T02:56:02.054Z,2.80
2023-02-05T02:58:51.242Z,5.60
2023-02-05T03:01:41.089Z,3.83
2023-02-05T03:04:35.050Z,8.90
2023-02-05T03:07:30.433Z,4.90
2023-02-05T03:10:24.388Z,4.80
2023-02-05T03:13:12.739Z,3.30
2023-02-05T03:16:01.131Z,2.40
2023-02-05T03:18:49.322Z,2.67
2023-02-05T03:21:42.597Z,2.30
2023-02-05T03:24:31.885Z,2.30
2023-02-05T03:27:19.715Z,4.00
2023-02-05T03:30:07.792Z,3.17
2023-02-05T03:33:10.538Z,2.67
2023-02-05T03:36:01.987Z,3.50
2023-02-05T03:39:08.284Z,2.00
2023-02-05T03:42:03.265Z,4.17
2023-02-05T03:44:50.650Z,2.17
2023-02-05T03:47:37.981Z,2.70
2023-02-05T03:50:40.665Z,4.97
2023-02-05T03:53:45.491Z,6.77
2023-02-05T03:56:40.517Z,5.67
2023-02-05T03:59:29.018Z,4.10
2023-02-05T04:02:16.880Z,4.00
2023-02-05T04:05:04.435Z,3.50
2023-02-05T04:07:52.140Z,2.50
2023-02-05T04:10:39.474Z,3.03
2023-02-05T04:13:26.820Z,7.10
2023-02-05T04:16:14.274Z,2.93
2023-02-05T04:19:01.852Z,6.37
2023-02-05T04:21:49.187Z,3.90
2023-02-05T04:24:36.553Z,7.27
2023-02-05T04:27:23.959Z,3.63
2023-02-05T04:30:11.732Z,5.27
2023-02-05T04:32:59.099Z,4.73
2023-02-05T04:35:46.541Z,4.53
2023-02-05T04:38:34.090Z,7.97
2023-02-05T04:41:21.454Z,6.13
2023-02-05T04:44:08.895Z,5.93
2023-02-05T04:46:56.261Z,7.87
2023-02-05T04:49:43.621Z,6.13
2023-02-05T04:52:31.122Z,7.97
2023-02-05T04:55:18.475Z,5.27
2023-02-05T04:58:05.943Z,5.43
2023-02-05T05:00:53.288Z,7.03
2023-02-05T05:03:40.818Z,3.73
2023-02-05T05:06:28.318Z,4.30
2023-02-05T05:09:15.694Z,2.97
2023-02-05T05:12:03.143Z,8.97
2023-02-05T05:14:50.471Z,9.10
2023-02-05T05:17:37.860Z,5.73
2023-02-05T05:20:25.192Z,4.70
2023-02-05T05:23:12.562Z,5.17
2023-02-05T05:25:59.940Z,7.77
2023-02-05T05:28:47.361Z,4.37
2023-02-05T05:31:34.820Z,7.07
2023-02-05T05:34:22.298Z,4.33
2023-02-05T05:37:09.639Z,3.50
2023-02-05T05:40:15.920Z,3.60
2023-02-05T05:43:22.000Z,4.70
2023-02-05T05:46:09.393Z,3.83
2023-02-05T05:48:58.488Z,4.47
2023-02-05T05:51:45.884Z,4.07
2023-02-05T05:54:33.301Z,5.90
2023-02-05T05:57:21.117Z,3.17
2023-02-05T06:00:08.835Z,3.30
2023-02-05T06:02:56.232Z,2.67
2023-02-05T06:05:43.590Z,5.50
2023-02-05T06:08:31.408Z,2.37
2023-02-05T06:11:18.750Z,4.60
2023-02-05T06:14:06.112Z,3.90
2023-02-05T06:16:55.715Z,3.80
2023-02-05T06:19:43.066Z,3.17
2023-02-05T06:22:30.526Z,2.53
2023-02-05T06:25:17.972Z,2.80
2023-02-05T06:28:05.718Z,3.00
2023-02-05T06:30:53.225Z,2.67
2023-02-05T06:33:40.739Z,3.13
2023-02-05T06:36:28.098Z,3.70
2023-02-05T06:39:15.461Z,4.63
2023-02-05T06:42:02.791Z,4.40
2023-02-05T06:44:50.202Z,3.83
2023-02-05T06:47:37.971Z,4.07
2023-02-05T06:50:25.800Z,2.60
2023-02-05T06:53:13.148Z,2.30
2023-02-05T06:56:00.544Z,3.77
2023-02-05T06:58:47.947Z,3.67
2023-02-05T07:01:35.394Z,2.70
2023-02-05T07:04:22.878Z,2.73
2023-02-05T07:07:10.338Z,2.77
2023-02-05T07:09:57.742Z,2.70
2023-02-05T07:12:45.291Z,2.83
2023-02-05T07:15:32.923Z,3.57
2023-02-05T07:18:20.484Z,4.67
2023-02-05T07:21:09.169Z,3.03
2023-02-05T07:23:56.584Z,3.27
2023-02-05T07:26:45.272Z,5.07
2023-02-05T07:29:32.700Z,4.77
2023-02-05T07:32:20.402Z,3.87
2023-02-05T07:35:08.080Z,7.57
2023-02-05T07:37:55.688Z,2.87
2023-02-05T07:40:43.247Z,3.73
2023-02-05T07:43:31.241Z,2.63
2023-02-05T07:46:18.762Z,4.90
2023-02-05T07:49:06.134Z,3.50
2023-02-05T07:51:53.513Z,3.37
2023-02-05T07:54:41.187Z,3.87
2023-02-05T07:57:28.569Z,4.93
2023-02-05T08:00:16.015Z,5.57
2023-02-05T08:03:05.242Z,4.20
2023-02-05T08:05:52.600Z,5.63
2023-02-05T08:08:40.100Z,5.57
2023-02-05T08:11:27.424Z,2.67
2023-02-05T08:14:14.792Z,4.23
2023-02-05T08:17:02.270Z,5.63
2023-02-05T08:19:50.917Z,4.10
2023-02-05T08:22:39.669Z,4.80
2023-02-05T08:25:29.792Z,5.50
2023-02-05T08:28:17.290Z,5.73
2023-02-05T08:31:09.936Z,8.60
2023-02-05T08:33:59.892Z,7.03
2023-02-05T08:36:47.254Z,5.57
2023-02-05T08:39:34.727Z,6.17
2023-02-05T08:42:22.167Z,3.77
2023-02-05T08:45:09.854Z,4.93
2023-02-05T08:47:57.254Z,3.33
2023-02-05T08:50:47.690Z,4.37
2023-02-05T08:53:35.024Z,5.87
2023-02-05T08:56:22.769Z,4.30
2023-02-05T08:59:10.825Z,2.47
2023-02-05T09:01:58.193Z,4.90
2023-02-05T09:04:45.839Z,4.63
2023-02-05T09:07:33.296Z,3.17
2023-02-05T09:10:20.738Z,4.47
2023-02-05T09:13:08.173Z,2.40
2023-02-05T09:15:55.600Z,4.47
2023-02-05T09:18:43.056Z,3.93
2023-02-05T09:21:30.756Z,2.70
2023-02-05T09:24:18.244Z,4.73
2023-02-05T09:27:06.755Z,4.43
2023-02-05T09:29:54.186Z,3.50
2023-02-05T09:32:41.571Z,5.73
2023-02-05T09:35:28.914Z,7.63
2023-02-05T09:38:18.235Z,4.97
2023-02-05T09:41:10.828Z,6.43
2023-02-05T09:44:00.598Z,4.17
2023-02-05T09:47:02.417Z,3.30
2023-02-05T09:49:54.157Z,2.10
2023-02-05T09:52:44.936Z,2.63
2023-02-05T09:55:38.778Z,4.63
2023-02-05T09:58:30.989Z,9.73
2023-02-05T10:01:21.427Z,3.17
2023-02-05T10:04:09.542Z,4.00
2023-02-05T10:07:03.170Z,3.70
2023-02-05T10:09:59.874Z,5.03
2023-02-05T10:13:12.942Z,4.97
2023-02-05T10:16:11.382Z,4.83
2023-02-05T10:19:35.162Z,3.67
2023-02-05T10:22:22.599Z,3.87
2023-02-05T10:25:35.378Z,7.67
2023-02-05T10:28:22.976Z,2.87
2023-02-05T10:31:25.319Z,4.70
2023-02-05T10:34:31.468Z,5.43
2023-02-05T10:37:20.254Z,6.27
2023-02-05T10:40:15.165Z,5.63
2023-02-05T10:43:18.114Z,2.93
2023-02-05T10:46:05.793Z,4.40
2023-02-05T10:49:01.944Z,5.40
2023-02-05T10:51:49.381Z,5.20
2023-02-05T10:54:37.105Z,4.97
2023-02-05T10:57:24.949Z,6.47
2023-02-05T11:00:17.616Z,6.53
2023-02-05T11:03:05.701Z,4.63
2023-02-05T11:05:53.135Z,3.40
2023-02-05T11:08:45.174Z,4.87
2023-02-05T11:11:32.890Z,2.83
2023-02-05T11:14:28.456Z,2.20
2023-02-05T11:17:24.461Z,3.03
2023-02-05T11:20:11.839Z,6.13
2023-02-05T11:23:18.266Z,3.93
2023-02-05T11:26:10.791Z,5.47
2023-02-05T11:28:58.527Z,4.50
2023-02-05T11:31:45.938Z,3.40
2023-02-05T11:34:33.381Z,3.60
2023-02-05T11:37:20.855Z,6.33
2023-02-05T11:40:18.379Z,6.87
2023-02-05T11:43:07.551Z,6.77
2023-02-05T11:45:57.434Z,5.70
2023-02-05T11:48:46.859Z,4.90
2023-02-05T11:51:40.459Z,3.60
2023-02-05T11:54:32.459Z,4.27
2023-02-05T11:57:21.845Z,4.63
2023-02-05T12:00:09.216Z,3.60
2023-02-05T12:03:04.835Z,4.37
2023-02-05T12:05:54.542Z,5.63
2023-02-05T12:08:48.077Z,6.57
2023-02-05T12:11:55.437Z,6.00
2023-02-05T12:15:01.807Z,5.13
2023-02-05T12:17:49.215Z,5.70
2023-02-05T12:20:41.709Z,6.40
2023-02-05T12:23:38.280Z,4.73
2023-02-05T12:26:30.196Z,4.90
2023-02-05T12:29:21.639Z,6.00
2023-02-05T12:32:22.345Z,6.40
2023-02-05T12:35:18.343Z,8.50
2023-02-05T12:38:05.700Z,6.33
2023-02-05T12:40:56.013Z,4.77
2023-02-05T12:43:48.118Z,4.70
2023-02-05T12:46:49.851Z,4.23
2023-02-05T12:49:45.022Z,3.90
2023-02-05T12:52:50.987Z,7.10
2023-02-05T12:55:45.072Z,8.83
2023-02-05T12:58:36.620Z,5.60
2023-02-05T13:01:27.393Z,9.23
2023-02-05T13:04:38.510Z,4.40
2023-02-05T13:07:34.293Z,3.70
2023-02-05T13:10:23.674Z,5.17
2023-02-05T13:13:17.428Z,5.27
2023-02-05T13:16:08.087Z,5.07
2023-02-05T13:19:04.305Z,7.33
2023-02-05T13:22:12.475Z,3.73
2023-02-05T13:25:30.011Z,7.30
2023-02-05T13:28:41.611Z,3.87
2023-02-05T13:31:32.250Z,4.70
2023-02-05T13:34:20.001Z,6.13
2023-02-05T13:37:39.869Z,3.83
2023-02-05T13:40:32.917Z,4.70
2023-02-05T13:43:42.660Z,3.67
2023-02-05T13:46:46.645Z,4.37
2023-02-05T13:49:36.919Z,7.23
2023-02-05T13:52:24.241Z,4.70
2023-02-05T13:55:17.410Z,6.77
2023-02-05T13:58:07.469Z,14.87
2023-02-05T14:01:03.032Z,5.07
2023-02-05T14:03:55.519Z,5.17
2023-02-05T14:06:44.333Z,6.73
2023-02-05T14:09:52.619Z,4.27
2023-02-05T14:12:40.032Z,3.63
2023-02-05T14:15:36.863Z,3.63
2023-02-05T14:18:40.072Z,3.57
2023-02-05T14:21:30.180Z,4.53
2023-02-05T14:24:36.372Z,3.50
2023-02-05T14:27:26.712Z,6.00
2023-02-05T14:30:37.614Z,4.30
2023-02-05T14:33:31.219Z,5.67
2023-02-05T14:36:22.697Z,4.70
2023-02-05T14:39:20.706Z,4.47
2023-02-05T14:42:08.320Z,6.70
2023-02-05T14:44:57.341Z,5.97
2023-02-05T14:47:45.091Z,4.40
2023-02-05T14:50:32.548Z,5.07
2023-02-05T14:53:26.590Z,4.37
2023-02-05T14:56:25.708Z,6.00
2023-02-05T14:59:22.447Z,3.17
2023-02-05T15:02:28.640Z,4.03
2023-02-05T15:05:26.418Z,5.73
2023-02-05T15:08:29.124Z,4.93
2023-02-05T15:11:35.392Z,5.30
2023-02-05T15:14:24.293Z,4.70
2023-02-05T15:17:13.814Z,4.33
2023-02-05T15:20:04.470Z,3.70
2023-02-05T15:22:54.863Z,5.03
2023-02-05T15:25:44.641Z,6.23
2023-02-05T15:28:34.373Z,4.73
2023-02-05T15:31:28.547Z,7.53
2023-02-05T15:34:22.072Z,3.80
2023-02-05T15:37:09.430Z,3.87
2023-02-05T15:40:09.862Z,7.00
2023-02-05T15:43:17.897Z,6.17
2023-02-05T15:46:06.893Z,5.00
2023-02-05T15:48:57.400Z,3.80
2023-02-05T15:51:46.831Z,7.60
2023-02-05T15:54:36.500Z,11.23
2023-02-05T15:57:25.300Z,6.57
2023-02-05T16:00:19.424Z,7.23
2023-02-05T16:03:07.202Z,4.93
2023-02-05T16:05:54.612Z,5.30
2023-02-05T16:08:46.654Z,5.93
2023-02-05T16:11:35.701Z,5.53
2023-02-05T16:14:28.589Z,6.57
2023-02-05T16:17:19.054Z,7.57
2023-02-05T16:20:09.553Z,6.50
2023-02-05T16:22:59.116Z,8.73
2023-02-05T16:25:46.483Z,9.00
2023-02-05T16:28:38.603Z,7.43
2023-02-05T16:31:27.091Z,8.57
2023-02-05T16:34:19.064Z,6.50
2023-02-05T16:37:10.239Z,11.60
2023-02-05T16:39:58.496Z,9.33
2023-02-05T16:42:46.232Z,7.53
2023-02-05T16:45:33.664Z,9.10
2023-02-05T16:48:22.232Z,8.13
2023-02-05T16:51:27.054Z,7.50
2023-02-05T16:54:14.426Z,7.00
2023-02-05T16:57:16.663Z,9.20
2023-02-05T17:00:08.854Z,6.83
2023-02-05T17:02:57.564Z,8.73
2023-02-05T17:05:45.097Z,8.77
2023-02-05T17:08:34.116Z,7.83
2023-02-05T17:11:38.886Z,7.67
2023-02-05T17:14:35.600Z,5.40
2023-02-05T17:17:23.314Z,7.33
2023-02-05T17:20:11.081Z,8.53
2023-02-05T17:23:05.133Z,16.17
2023-02-05T17:25:55.239Z,11.47
2023-02-05T17:28:45.214Z,10.90
2023-02-05T17:31:39.569Z,15.40
2023-02-05T17:34:26.954Z,9.70
2023-02-05T17:37:14.865Z,5.10
2023-02-05T17:40:02.229Z,6.33
2023-02-05T17:42:49.575Z,11.47
2023-02-05T17:45:39.546Z,13.40
2023-02-05T17:48:26.932Z,10.57
2023-02-05T17:51:19.252Z,10.73
2023-02-05T17:54:07.359Z,12.93
2023-02-05T17:56:56.695Z,7.63
2023-02-05T17:59:44.892Z,9.60
2023-02-05T18:02:32.394Z,6.50
2023-02-05T18:05:20.348Z,8.10
2023-02-05T18:08:07.909Z,6.17
2023-02-05T18:10:55.269Z,6.57
2023-02-05T18:13:42.668Z,4.23
2023-02-05T18:16:30.066Z,6.83
2023-02-05T18:19:17.514Z,7.67
2023-02-05T18:22:07.460Z,10.10
2023-02-05T18:24:55.129Z,7.63
2023-02-05T18:27:42.611Z,9.93
2023-02-05T18:30:31.381Z,6.83
2023-02-05T18:33:18.841Z,9.20
2023-02-05T18:36:09.108Z,7.67
2023-02-05T18:38:57.651Z,7.73
2023-02-05T18:41:45.211Z,9.57
2023-02-05T18:44:32.648Z,11.57
2023-02-05T18:47:20.053Z,11.40
2023-02-05T18:50:10.134Z,11.20
2023-02-05T18:52:57.806Z,16.27
2023-02-05T18:55:45.152Z,14.40
2023-02-05T18:58:32.506Z,10.53
2023-02-05T19:01:20.263Z,15.63
2023-02-05T19:04:09.722Z,24.65
2023-02-05T19:06:57.231Z,12.97
2023-02-05T19:09:44.616Z,16.67
2023-02-05T19:12:32.026Z,16.43
2023-02-05T19:15:19.431Z,16.10
2023-02-05T19:18:07.456Z,17.83
2023-02-05T19:20:54.804Z,21.97
2023-02-05T19:23:43.161Z,20.17
2023-02-05T19:26:30.985Z,22.03
2023-02-05T19:29:20.342Z,17.43
2023-02-05T19:32:08.506Z,20.27
2023-02-05T19:34:55.938Z,21.87
2023-02-05T19:37:43.302Z,19.07
2023-02-05T19:40:30.681Z,24.83
2023-02-05T19:43:19.666Z,20.57
2023-02-05T19:46:07.610Z,21.73
2023-02-05T19:48:56.332Z,16.70
2023-02-05T19:51:48.040Z,23.77
2023-02-05T19:54:35.554Z,20.37
2023-02-05T19:57:22.917Z,23.67
2023-02-05T20:00:10.676Z,23.87
2023-02-05T20:02:58.111Z,21.03
2023-02-05T20:05:45.685Z,19.97
2023-02-05T20:08:33.127Z,21.00
2023-02-05T20:11:21.098Z,22.93
2023-02-05T20:14:08.762Z,24.47
2023-02-05T20:16:56.131Z,25.13
2023-02-05T20:19:43.523Z,24.90
2023-02-05T20:22:30.925Z,23.40
2023-02-05T20:25:18.393Z,26.43
2023-02-05T20:28:05.954Z,28.77
2023-02-05T20:31:12.601Z,26.03
2023-02-05T20:34:04.319Z,28.60
2023-02-05T20:37:04.171Z,31.67
2023-02-05T20:39:52.062Z,24.73
2023-02-05T20:42:39.403Z,27.27
2023-02-05T20:45:26.820Z,29.23
2023-02-05T20:48:14.276Z,25.27
2023-02-05T20:51:05.526Z,26.63
2023-02-05T20:53:56.993Z,28.17
2023-02-05T20:56:44.654Z,25.00
2023-02-05T20:59:33.024Z,21.93
2023-02-05T21:02:22.258Z,27.67
2023-02-05T21:05:09.795Z,27.63
2023-02-05T21:07:57.274Z,31.57
2023-02-05T21:10:44.664Z,26.37
2023-02-05T21:13:32.112Z,29.07
2023-02-05T21:16:21.371Z,29.40
2023-02-05T21:19:09.375Z,27.80
2023-02-05T21:21:56.708Z,30.73
2023-02-05T21:24:44.036Z,29.13
2023-02-05T21:27:31.484Z,28.17
2023-02-05T21:30:19.060Z,31.40
2023-02-05T21:33:06.517Z,27.00
2023-02-05T21:35:53.896Z,28.27
2023-02-05T21:38:42.337Z,31.13
2023-02-05T21:41:29.968Z,30.07
2023-02-05T21:44:17.456Z,27.67
2023-02-05T21:47:05.667Z,31.23
2023-02-05T21:49:53.093Z,31.37
2023-02-05T21:52:40.568Z,25.70
2023-02-05T21:55:27.909Z,27.53
2023-02-05T21:58:15.259Z,27.00
2023-02-05T22:01:13.249Z,27.07
2023-02-05T22:04:18.895Z,27.47
2023-02-05T22:07:06.316Z,26.87
2023-02-05T22:09:53.668Z,23.67
2023-02-05T22:12:41.042Z,25.67
2023-02-05T22:15:28.490Z,23.60
2023-02-05T22:18:18.623Z,22.40
2023-02-05T22:21:13.636Z,19.10
2023-02-05T22:24:02.116Z,31.83
2023-02-05T22:26:50.037Z,23.07
2023-02-05T22:29:37.529Z,29.10
2023-02-05T22:32:24.970Z,23.50
2023-02-05T22:35:12.384Z,24.63
2023-02-05T22:37:59.820Z,23.47
2023-02-05T22:40:47.262Z,24.70
2023-02-05T22:43:34.780Z,23.20
2023-02-05T22:46:23.352Z,23.30
2023-02-05T22:49:12.394Z,23.10
2023-02-05T22:51:59.802Z,20.57
2023-02-05T22:54:47.201Z,21.23
2023-02-05T22:57:34.531Z,25.40
2023-02-05T23:00:22.429Z,23.30
2023-02-05T23:03:09.794Z,22.77
2023-02-05T23:05:57.260Z,27.20
2023-02-05T23:08:45.458Z,21.93
2023-02-05T23:11:33.836Z,25.67
2023-02-05T23:14:21.255Z,27.40
2023-02-05T23:17:08.645Z,23.53
2023-02-05T23:19:56.021Z,22.50
2023-02-05T23:22:43.848Z,23.97
2023-02-05T23:25:31.255Z,25.90
2023-02-05T23:28:18.682Z,24.37
2023-02-05T23:31:06.486Z,19.87
2023-02-05T23:33:55.263Z,23.43
2023-02-05T23:36:42.611Z,22.93
2023-02-05T23:39:30.551Z,22.00
2023-02-05T23:42:17.900Z,21.23
2023-02-05T23:45:05.320Z,24.43
2023-02-05T23:47:52.757Z,21.33
2023-02-05T23:50:40.198Z,23.27
2023-02-05T23:53:27.747Z,21.33
2023-02-05T23:56:16.509Z,23.83
2023-02-05T23:59:04.407Z,24.87
